Time;durP1;ratioP1;P1;durP2;ratioP2;P2;SDS_P1;SDS_P2;PMS_P1;PMS_P2;Temp;Humidity;BMP_temperature;BMP_pressure;BME280_temperature;BME280_humidity;BME280_pressure;Samples;Min_cycle;Max_cycle;Signal;HPM_P1;HPM_P2
2022/05/25 00:01:33;;;;;;;12.50;9.65;;;;;;;;;;5053040;28;20055;-25
2022/05/25 00:04:00;;;;;;;13.98;9.18;;;;;;;;;;5052716;28;20053;-24
2022/05/25 00:06:26;;;;;;;11.10;9.13;;;;;;;;;;5053857;28;20041;-25
2022/05/25 00:08:52;;;;;;;16.50;10.15;;;;;;;;;;5053822;28;20085;-25
2022/05/25 00:11:18;;;;;;;13.07;9.60;;;;;;;;;;5057353;28;20581;-25
2022/05/25 00:13:44;;;;;;;10.85;9.30;;;;;;;;;;5036242;28;20060;-24
2022/05/25 00:16:11;;;;;;;12.85;10.10;;;;;;;;;;5053308;28;20052;-24
2022/05/25 00:19:58;;;;;;;13.82;9.93;;;;;;;;;;5052728;28;20087;-25
2022/05/25 00:21:23;;;;;;;16.55;9.93;;;;;;;;;;5053381;28;20476;-25
2022/05/25 00:23:49;;;;;;;15.15;9.88;;;;;;;;;;5054220;28;20106;-25
2022/05/25 00:26:15;;;;;;;14.18;10.15;;;;;;;;;;5054061;28;20068;-25
2022/05/25 00:28:41;;;;;;;12.70;9.85;;;;;;;;;;5052917;28;20045;-25
2022/05/25 00:31:08;;;;;;;12.20;10.25;;;;;;;;;;5053072;28;20513;-25
2022/05/25 00:33:34;;;;;;;14.93;10.70;;;;;;;;;;5052940;28;20067;-25
2022/05/25 00:36:00;;;;;;;14.32;10.45;;;;;;;;;;5054671;28;20049;-25
2022/05/25 00:38:27;;;;;;;13.90;10.55;;;;;;;;;;5035686;28;20127;-26
2022/05/25 00:40:53;;;;;;;13.40;11.32;;;;;;;;;;5053404;28;20052;-25
2022/05/25 00:43:19;;;;;;;17.67;12.38;;;;;;;;;;5053222;28;20486;-24
2022/05/25 00:45:47;;;;;;;15.50;12.70;;;;;;;;;;5053143;28;20406;-24
2022/05/25 00:48:33;;;;;;;18.27;12.70;;;;;;;;;;5053680;28;20088;-24
2022/05/25 00:51:12;;;;;;;21.88;13.60;;;;;;;;;;5056570;28;20049;-25
2022/05/25 00:53:40;;;;;;;20.02;13.20;;;;;;;;;;5073432;28;20504;-25
2022/05/25 00:56:07;;;;;;;22.02;13.82;;;;;;;;;;5064506;28;20045;-24
2022/05/25 00:58:34;;;;;;;22.27;15.48;;;;;;;;;;5053874;28;20481;-25
2022/05/25 01:01:00;;;;;;;19.55;14.68;;;;;;;;;;5074057;28;20464;-25
2022/05/25 01:03:27;;;;;;;22.77;15.02;;;;;;;;;;5072070;28;20063;-25
2022/05/25 01:06:05;;;;;;;27.00;15.98;;;;;;;;;;5056912;28;20533;-25
2022/05/25 01:08:31;;;;;;;26.98;15.63;;;;;;;;;;5055990;28;20045;-25
2022/05/25 01:11:16;;;;;;;21.13;14.95;;;;;;;;;;5058734;28;20394;-25
2022/05/25 01:13:42;;;;;;;21.65;16.70;;;;;;;;;;5052849;28;20036;-25
2022/05/25 01:16:12;;;;;;;29.77;15.55;;;;;;;;;;5053297;28;20053;-24
2022/05/25 01:18:50;;;;;;;25.05;17.10;;;;;;;;;;5053700;28;20048;-25
2022/05/25 01:21:24;;;;;;;24.38;16.25;;;;;;;;;;5052885;28;20045;-25
2022/05/25 01:23:54;;;;;;;29.52;17.98;;;;;;;;;;5053314;28;20037;-25
2022/05/25 01:26:29;;;;;;;27.30;17.85;;;;;;;;;;5053086;28;20041;-25
2022/05/25 01:29:08;;;;;;;28.88;18.13;;;;;;;;;;5052779;28;20566;-25
2022/05/25 01:31:52;;;;;;;28.77;18.27;;;;;;;;;;5053136;28;20057;-24
2022/05/25 01:34:37;;;;;;;27.95;18.48;;;;;;;;;;5035716;28;20140;-24
2022/05/25 01:37:09;;;;;;;26.13;17.42;;;;;;;;;;5053220;28;20127;-25
2022/05/25 01:39:39;;;;;;;29.65;18.23;;;;;;;;;;5072125;28;20398;-25
2022/05/25 01:42:11;;;;;;;30.40;18.80;;;;;;;;;;5053110;28;20041;-25
2022/05/25 01:44:39;;;;;;;25.27;17.52;;;;;;;;;;5052062;28;20048;-25
2022/05/25 01:47:06;;;;;;;27.83;18.60;;;;;;;;;;5052259;28;20383;-24
2022/05/25 01:49:45;;;;;;;31.90;20.02;;;;;;;;;;5052450;28;20052;-25
2022/05/25 01:52:14;;;;;;;32.88;20.25;;;;;;;;;;5052000;28;20041;-25
2022/05/25 01:54:45;;;;;;;31.02;19.38;;;;;;;;;;5053685;28;20111;-25
2022/05/25 01:57:12;;;;;;;31.92;20.58;;;;;;;;;;5050383;28;20072;-25
2022/05/25 01:59:38;;;;;;;32.03;18.70;;;;;;;;;;5051308;28;20074;-25
2022/05/25 02:04:51;;;;;;;27.70;19.20;;;;;;;;;;5052557;28;20045;-25
2022/05/25 02:07:17;;;;;;;33.50;21.35;;;;;;;;;;5060071;28;20437;-24
2022/05/25 02:09:47;;;;;;;33.55;20.45;;;;;;;;;;5074097;28;20059;-24
2022/05/25 02:12:19;;;;;;;30.80;19.67;;;;;;;;;;5060210;28;20045;-25
2022/05/25 02:14:46;;;;;;;34.20;21.67;;;;;;;;;;5058968;28;20091;-25
2022/05/25 02:17:31;;;;;;;37.83;20.88;;;;;;;;;;5065805;28;20060;-25
2022/05/25 02:20:16;;;;;;;32.10;19.83;;;;;;;;;;5076389;28;20474;-24
2022/05/25 02:22:44;;;;;;;34.13;21.63;;;;;;;;;;5069967;28;20083;-25
2022/05/25 02:25:14;;;;;;;35.85;21.73;;;;;;;;;;5056320;28;20053;-25
2022/05/25 02:27:45;;;;;;;37.22;21.50;;;;;;;;;;5057326;28;20044;-25
2022/05/25 02:30:15;;;;;;;31.60;20.38;;;;;;;;;;5054587;28;20052;-25
2022/05/25 02:32:46;;;;;;;38.28;22.05;;;;;;;;;;5056289;28;20479;-24
2022/05/25 02:35:14;;;;;;;37.13;21.30;;;;;;;;;;5055440;28;20053;-24
2022/05/25 02:37:43;;;;;;;44.05;24.40;;;;;;;;;;5054997;28;20072;-25
2022/05/25 02:40:09;;;;;;;43.20;24.17;;;;;;;;;;5054301;28;20498;-26
2022/05/25 02:42:40;;;;;;;44.33;24.33;;;;;;;;;;5074678;28;20044;-24
2022/05/25 02:45:07;;;;;;;36.38;22.25;;;;;;;;;;5064060;28;20398;-25
2022/05/25 02:47:33;;;;;;;37.63;22.92;;;;;;;;;;5054817;28;20060;-24
2022/05/25 02:49:59;;;;;;;41.40;24.15;;;;;;;;;;5055200;28;20053;-24
2022/05/25 02:52:25;;;;;;;46.65;23.75;;;;;;;;;;5054066;28;20055;-25
2022/05/25 02:54:52;;;;;;;36.72;22.45;;;;;;;;;;5055290;28;20041;-25
2022/05/25 02:57:18;;;;;;;48.30;27.00;;;;;;;;;;5057500;28;20386;-25
2022/05/25 02:59:46;;;;;;;44.13;26.00;;;;;;;;;;5055582;28;20071;-25
2022/05/25 03:02:12;;;;;;;49.13;27.77;;;;;;;;;;5054633;28;20061;-24
2022/05/25 03:04:38;;;;;;;43.40;25.70;;;;;;;;;;5053866;28;20076;-25
2022/05/25 03:07:05;;;;;;;55.35;29.67;;;;;;;;;;5054847;28;20483;-26
2022/05/25 03:09:31;;;;;;;46.92;28.13;;;;;;;;;;5055116;28;20433;-25
2022/05/25 03:11:57;;;;;;;50.08;27.90;;;;;;;;;;5056810;28;20051;-25
2022/05/25 03:14:23;;;;;;;54.38;29.52;;;;;;;;;;5054891;28;20045;-24
2022/05/25 03:16:49;;;;;;;49.65;27.40;;;;;;;;;;5054615;28;20132;-25
2022/05/25 03:19:17;;;;;;;51.85;26.63;;;;;;;;;;5054325;28;20052;-25
2022/05/25 03:21:44;;;;;;;53.50;26.90;;;;;;;;;;5055370;28;20094;-24
2022/05/25 03:24:10;;;;;;;51.00;27.17;;;;;;;;;;5054123;28;20052;-24
2022/05/25 03:26:36;;;;;;;68.38;32.10;;;;;;;;;;5054804;28;20055;-25
2022/05/25 03:29:02;;;;;;;68.68;32.95;;;;;;;;;;5053375;28;20084;-24
2022/05/25 03:31:28;;;;;;;61.78;29.85;;;;;;;;;;5055400;28;20049;-25
2022/05/25 03:33:55;;;;;;;56.22;28.92;;;;;;;;;;5061128;28;20064;-25
2022/05/25 03:36:21;;;;;;;53.53;30.17;;;;;;;;;;5061371;28;20077;-25
2022/05/25 03:38:47;;;;;;;53.08;27.52;;;;;;;;;;5054265;28;20048;-25
2022/05/25 03:41:17;;;;;;;64.25;32.85;;;;;;;;;;5054498;28;20044;-25
2022/05/25 03:43:43;;;;;;;58.38;29.13;;;;;;;;;;5065293;28;20417;-25
2022/05/25 03:46:09;;;;;;;58.85;30.10;;;;;;;;;;5074592;28;20509;-25
2022/05/25 03:48:35;;;;;;;64.72;34.17;;;;;;;;;;5073398;28;20099;-25
2022/05/25 03:51:01;;;;;;;69.32;33.63;;;;;;;;;;5055821;28;20124;-25
2022/05/25 03:53:27;;;;;;;55.20;28.15;;;;;;;;;;5052753;28;20045;-25
2022/05/25 03:55:54;;;;;;;59.35;28.77;;;;;;;;;;5053183;28;20048;-24
2022/05/25 03:58:20;;;;;;;53.95;31.15;;;;;;;;;;5053975;28;20095;-24
2022/05/25 04:00:46;;;;;;;65.55;33.55;;;;;;;;;;5036525;28;20060;-24
2022/05/25 04:03:13;;;;;;;56.85;31.85;;;;;;;;;;5056378;28;20435;-24
2022/05/25 04:05:40;;;;;;;58.70;32.28;;;;;;;;;;5051903;28;20537;-25
2022/05/25 04:08:06;;;;;;;71.45;36.80;;;;;;;;;;5054426;28;20483;-24
2022/05/25 04:10:32;;;;;;;58.78;30.13;;;;;;;;;;5052834;28;20049;-24
2022/05/25 04:12:58;;;;;;;63.58;33.28;;;;;;;;;;5056301;28;20095;-24
2022/05/25 04:15:26;;;;;;;56.30;32.20;;;;;;;;;;5053852;28;20410;-25
2022/05/25 04:17:52;;;;;;;52.78;29.83;;;;;;;;;;5053148;28;20079;-25
2022/05/25 04:20:19;;;;;;;46.35;26.05;;;;;;;;;;5054611;28;20048;-24
2022/05/25 04:22:45;;;;;;;56.67;32.38;;;;;;;;;;5053840;28;20037;-24
2022/05/25 04:25:13;;;;;;;42.60;25.67;;;;;;;;;;5052605;28;20530;-24
2022/05/25 04:27:40;;;;;;;54.33;31.08;;;;;;;;;;5052757;28;20045;-24
2022/05/25 04:30:07;;;;;;;40.38;24.80;;;;;;;;;;5053921;28;20041;-24
2022/05/25 04:32:33;;;;;;;52.65;28.80;;;;;;;;;;5052836;28;20048;-25
2022/05/25 04:34:59;;;;;;;47.60;27.15;;;;;;;;;;5053729;28;20041;-24
2022/05/25 04:40:12;;;;;;;42.20;27.02;;;;;;;;;;5053366;28;20136;-24
2022/05/25 04:42:38;;;;;;;41.47;25.38;;;;;;;;;;5056870;28;20128;-24
2022/05/25 04:45:04;;;;;;;40.35;23.90;;;;;;;;;;5056899;28;20036;-25
2022/05/25 04:47:31;;;;;;;37.42;23.48;;;;;;;;;;5073784;28;20087;-24
2022/05/25 04:49:58;;;;;;;33.70;22.52;;;;;;;;;;5073719;28;20048;-25
2022/05/25 04:52:24;;;;;;;33.53;21.20;;;;;;;;;;5060939;28;20060;-25
2022/05/25 04:54:51;;;;;;;37.08;24.45;;;;;;;;;;5053546;28;20067;-25
2022/05/25 04:57:20;;;;;;;36.20;23.50;;;;;;;;;;5051627;28;20040;-25
2022/05/25 04:59:50;;;;;;;27.98;19.60;;;;;;;;;;5054157;28;20372;-24
2022/05/25 05:02:17;;;;;;;32.67;19.77;;;;;;;;;;5063398;28;20453;-25
2022/05/25 05:04:43;;;;;;;32.15;21.15;;;;;;;;;;5069835;28;20059;-25
2022/05/25 05:07:10;;;;;;;28.10;19.15;;;;;;;;;;5053243;28;20052;-25
2022/05/25 05:09:37;;;;;;;24.10;18.25;;;;;;;;;;5052940;28;20128;-25
2022/05/25 05:12:03;;;;;;;33.58;20.98;;;;;;;;;;5055663;28;20068;-25
2022/05/25 05:14:30;;;;;;;25.08;19.13;;;;;;;;;;5052832;28;20533;-25
2022/05/25 05:16:57;;;;;;;26.02;17.55;;;;;;;;;;5052761;28;20113;-25
2022/05/25 05:19:24;;;;;;;22.58;17.00;;;;;;;;;;5052789;28;20045;-25
2022/05/25 05:21:51;;;;;;;22.55;15.50;;;;;;;;;;5054824;28;20072;-25
2022/05/25 05:24:17;;;;;;;23.70;17.33;;;;;;;;;;5052780;28;20102;-25
2022/05/25 05:26:43;;;;;;;19.80;14.50;;;;;;;;;;5052316;28;20045;-25
2022/05/25 05:29:09;;;;;;;19.80;14.88;;;;;;;;;;5053353;28;20055;-25
2022/05/25 05:31:35;;;;;;;19.88;14.85;;;;;;;;;;5051567;28;20376;-25
2022/05/25 05:34:02;;;;;;;16.55;13.15;;;;;;;;;;5052968;28;20132;-25
2022/05/25 05:36:31;;;;;;;16.08;13.13;;;;;;;;;;5057091;28;20040;-25
2022/05/25 05:39:05;;;;;;;13.95;12.20;;;;;;;;;;5066595;28;20041;-25
2022/05/25 05:41:46;;;;;;;16.00;11.98;;;;;;;;;;5052436;28;20408;-25
2022/05/25 05:44:14;;;;;;;16.63;11.73;;;;;;;;;;5053596;28;20178;-24
2022/05/25 05:46:42;;;;;;;13.05;11.20;;;;;;;;;;5056595;28;20053;-25
2022/05/25 05:49:12;;;;;;;17.67;12.55;;;;;;;;;;5055555;28;20041;-25
2022/05/25 05:51:38;;;;;;;14.65;10.90;;;;;;;;;;5056149;28;20483;-25
2022/05/25 05:54:05;;;;;;;17.48;11.68;;;;;;;;;;5045792;28;20150;-25
2022/05/25 05:56:34;;;;;;;12.68;10.40;;;;;;;;;;5059778;28;20041;-24
2022/05/25 05:59:01;;;;;;;13.68;10.38;;;;;;;;;;5056877;28;20090;-24
2022/05/25 06:01:27;;;;;;;13.52;10.18;;;;;;;;;;5056940;28;20429;-24
2022/05/25 06:03:53;;;;;;;14.82;9.13;;;;;;;;;;5054536;28;20578;-25
2022/05/25 06:06:19;;;;;;;14.48;9.20;;;;;;;;;;5060818;28;20660;-25
2022/05/25 06:08:48;;;;;;;11.63;9.55;;;;;;;;;;5069758;28;20053;-24
2022/05/25 06:11:15;;;;;;;10.90;8.00;;;;;;;;;;5060576;28;20494;-25
2022/05/25 06:13:41;;;;;;;13.73;8.60;;;;;;;;;;5070092;28;20037;-24
2022/05/25 06:21:37;;;;;;;7.53;6.70;;;;;;;;;;5055961;28;20052;-24
2022/05/25 06:24:04;;;;;;;10.73;8.00;;;;;;;;;;5055151;28;20041;-25
2022/05/25 06:26:32;;;;;;;11.45;8.50;;;;;;;;;;5058728;28;20053;-25
2022/05/25 06:28:59;;;;;;;11.05;6.55;;;;;;;;;;5061695;28;20044;-24
2022/05/25 06:31:26;;;;;;;9.15;6.70;;;;;;;;;;5066748;28;20087;-24
2022/05/25 06:33:52;;;;;;;11.15;7.20;;;;;;;;;;5076109;28;20037;-24
2022/05/25 06:36:20;;;;;;;11.63;6.55;;;;;;;;;;5071916;28;20403;-24
2022/05/25 06:38:46;;;;;;;9.25;6.80;;;;;;;;;;5058569;28;20052;-24
2022/05/25 06:41:13;;;;;;;9.68;6.45;;;;;;;;;;5076393;28;20127;-24
2022/05/25 06:43:39;;;;;;;12.05;6.93;;;;;;;;;;5071813;28;20445;-24
2022/05/25 06:46:06;;;;;;;9.85;6.15;;;;;;;;;;5055915;28;20460;-24
2022/05/25 06:48:32;;;;;;;9.48;4.82;;;;;;;;;;5055875;28;20128;-24
2022/05/25 06:50:59;;;;;;;7.88;4.65;;;;;;;;;;5055878;28;20049;-24
2022/05/25 06:53:25;;;;;;;6.15;5.13;;;;;;;;;;5056086;28;20045;-24
2022/05/25 06:55:51;;;;;;;8.95;5.63;;;;;;;;;;5055925;28;20478;-25
2022/05/25 06:58:17;;;;;;;7.97;4.88;;;;;;;;;;5060739;28;20516;-24
2022/05/25 07:00:43;;;;;;;9.93;5.03;;;;;;;;;;5060198;28;20483;-24
2022/05/25 07:03:09;;;;;;;9.23;4.93;;;;;;;;;;5061028;28;20053;-24
2022/05/25 07:05:35;;;;;;;6.53;4.80;;;;;;;;;;5059055;28;20053;-24
2022/05/25 07:08:01;;;;;;;5.72;4.00;;;;;;;;;;5055552;28;20052;-24
2022/05/25 07:10:27;;;;;;;8.02;4.45;;;;;;;;;;5054259;28;20047;-24
2022/05/25 07:12:53;;;;;;;7.57;3.70;;;;;;;;;;5055289;28;20061;-24
2022/05/25 07:15:19;;;;;;;6.75;3.63;;;;;;;;;;5038155;28;20049;-24
2022/05/25 07:17:48;;;;;;;7.80;4.57;;;;;;;;;;5055901;28;20044;-24
2022/05/25 07:20:14;;;;;;;10.10;5.18;;;;;;;;;;5054355;28;20051;-24
2022/05/25 07:22:40;;;;;;;7.15;4.60;;;;;;;;;;5054500;28;20499;-24
2022/05/25 07:25:07;;;;;;;8.35;5.13;;;;;;;;;;5057511;28;20116;-25
2022/05/25 07:27:33;;;;;;;6.97;4.72;;;;;;;;;;5062069;28;20049;-25
2022/05/25 07:29:59;;;;;;;5.85;4.43;;;;;;;;;;5058482;28;20044;-24
2022/05/25 07:32:27;;;;;;;7.28;4.88;;;;;;;;;;5055351;28;20044;-24
2022/05/25 07:34:55;;;;;;;9.02;5.40;;;;;;;;;;5053966;28;20064;-24
2022/05/25 07:37:23;;;;;;;6.07;4.13;;;;;;;;;;5069682;28;20084;-24
2022/05/25 07:39:54;;;;;;;6.75;3.85;;;;;;;;;;5075502;28;20055;-24
2022/05/25 07:42:20;;;;;;;9.00;5.20;;;;;;;;;;5073815;28;20055;-24
2022/05/25 07:44:49;;;;;;;9.68;5.03;;;;;;;;;;5074820;28;20143;-24
2022/05/25 07:47:15;;;;;;;5.78;4.15;;;;;;;;;;5067781;28;20048;-24
2022/05/25 07:49:41;;;;;;;8.40;4.47;;;;;;;;;;5054711;28;20106;-24
2022/05/25 07:52:08;;;;;;;5.78;3.95;;;;;;;;;;5054684;28;20048;-24
2022/05/25 07:54:34;;;;;;;6.55;4.20;;;;;;;;;;5054644;28;20128;-24
2022/05/25 07:57:01;;;;;;;5.28;3.28;;;;;;;;;;5054813;28;20068;-25
2022/05/25 07:59:27;;;;;;;5.30;3.67;;;;;;;;;;5060761;28;20086;-24
2022/05/25 08:07:31;;;;;;;11.60;5.07;;;;;;;;;;5065953;28;20061;-24
2022/05/25 08:10:01;;;;;;;8.48;3.60;;;;;;;;;;5074314;28;20056;-24
2022/05/25 08:12:29;;;;;;;6.95;3.80;;;;;;;;;;5073105;28;20410;-24
2022/05/25 08:14:56;;;;;;;7.40;3.80;;;;;;;;;;5071323;28;20131;-24
2022/05/25 08:17:22;;;;;;;5.65;3.40;;;;;;;;;;5063700;28;20174;-24
2022/05/25 08:19:48;;;;;;;4.95;2.90;;;;;;;;;;5074172;28;20094;-24
2022/05/25 08:22:14;;;;;;;7.50;3.40;;;;;;;;;;5074019;28;20047;-24
2022/05/25 08:24:40;;;;;;;5.07;3.50;;;;;;;;;;5074098;28;20048;-24
2022/05/25 08:27:06;;;;;;;5.80;3.85;;;;;;;;;;5074060;28;20078;-24
2022/05/25 08:29:32;;;;;;;7.43;4.22;;;;;;;;;;5072508;28;20041;-24
2022/05/25 08:31:58;;;;;;;6.68;3.70;;;;;;;;;;5073044;28;20083;-24
2022/05/25 08:34:25;;;;;;;4.57;3.58;;;;;;;;;;5068038;28;20456;-25
2022/05/25 08:36:52;;;;;;;5.78;3.22;;;;;;;;;;5064773;28;20496;-24
2022/05/25 08:39:18;;;;;;;7.53;4.57;;;;;;;;;;5071962;28;20095;-24
2022/05/25 08:41:45;;;;;;;5.68;3.47;;;;;;;;;;5058182;28;20119;-24
2022/05/25 08:44:12;;;;;;;6.30;2.67;;;;;;;;;;5073756;28;20060;-24
2022/05/25 08:46:38;;;;;;;5.68;2.95;;;;;;;;;;5074314;28;20080;-24
2022/05/25 08:49:10;;;;;;;4.32;2.33;;;;;;;;;;5072791;28;20051;-24
2022/05/25 08:51:48;;;;;;;3.90;2.90;;;;;;;;;;5073127;28;20052;-24
2022/05/25 08:54:14;;;;;;;6.60;3.10;;;;;;;;;;5054805;28;20406;-24
2022/05/25 08:56:44;;;;;;;4.00;2.67;;;;;;;;;;5052469;28;20049;-24
2022/05/25 08:59:13;;;;;;;5.07;2.65;;;;;;;;;;5053598;28;20084;-24
2022/05/25 09:01:51;;;;;;;4.32;3.20;;;;;;;;;;5053434;28;20041;-24
2022/05/25 09:04:36;;;;;;;6.13;2.60;;;;;;;;;;5052322;28;20055;-25
2022/05/25 09:07:11;;;;;;;4.60;2.90;;;;;;;;;;5053765;28;20056;-24
2022/05/25 09:09:39;;;;;;;5.90;2.60;;;;;;;;;;5035581;28;20084;-24
2022/05/25 09:12:08;;;;;;;4.22;2.58;;;;;;;;;;5053904;28;20045;-24
2022/05/25 09:14:37;;;;;;;3.53;1.95;;;;;;;;;;5053408;28;20048;-24
2022/05/25 09:17:09;;;;;;;3.42;2.38;;;;;;;;;;5053993;28;20056;-24
2022/05/25 09:19:37;;;;;;;4.78;2.78;;;;;;;;;;5056718;28;20116;-24
2022/05/25 09:22:12;;;;;;;3.35;2.20;;;;;;;;;;5057672;28;20059;-24
2022/05/25 09:24:39;;;;;;;8.32;3.17;;;;;;;;;;5057252;28;20103;-24
2022/05/25 09:27:08;;;;;;;7.10;3.03;;;;;;;;;;5057388;28;20045;-24
2022/05/25 09:29:34;;;;;;;7.07;3.13;;;;;;;;;;5057381;28;20056;-24
2022/05/25 09:32:00;;;;;;;5.32;2.50;;;;;;;;;;5056398;28;20053;-25
2022/05/25 09:34:29;;;;;;;3.85;1.90;;;;;;;;;;5058532;28;20108;-24
2022/05/25 09:36:59;;;;;;;4.72;2.88;;;;;;;;;;5057805;28;20123;-24
2022/05/25 09:39:26;;;;;;;7.22;2.92;;;;;;;;;;5057170;28;20077;-25
2022/05/25 09:41:57;;;;;;;5.75;2.45;;;;;;;;;;5057203;28;20098;-25
2022/05/25 09:44:24;;;;;;;4.25;2.45;;;;;;;;;;5057362;28;20084;-24
2022/05/25 09:46:55;;;;;;;7.50;1.80;;;;;;;;;;5057015;28;20071;-24
2022/05/25 09:49:50;;;;;;;6.20;2.75;;;;;;;;;;5057776;28;20045;-24
2022/05/25 09:52:39;;;;;;;5.20;2.78;;;;;;;;;;5062887;28;20049;-25
2022/05/25 09:55:09;;;;;;;6.32;2.42;;;;;;;;;;5076885;28;20059;-24
2022/05/25 09:57:37;;;;;;;4.38;2.90;;;;;;;;;;5077849;28;20157;-24
2022/05/25 10:00:23;;;;;;;5.25;2.30;;;;;;;;;;5076732;28;20127;-24
2022/05/25 10:02:51;;;;;;;7.43;2.38;;;;;;;;;;5076937;28;20061;-24
2022/05/25 10:05:40;;;;;;;4.13;2.80;;;;;;;;;;5076637;28;20131;-24
2022/05/25 10:08:15;;;;;;;4.38;2.42;;;;;;;;;;5058094;28;20420;-24
2022/05/25 10:10:50;;;;;;;4.18;2.70;;;;;;;;;;5057531;28;20157;-24
2022/05/25 10:13:24;;;;;;;6.50;3.30;;;;;;;;;;5056658;28;20497;-24
2022/05/25 10:15:51;;;;;;;4.18;2.45;;;;;;;;;;5056263;28;20041;-25
2022/05/25 10:18:31;;;;;;;4.57;2.80;;;;;;;;;;5067151;28;20397;-24
2022/05/25 10:20:57;;;;;;;5.10;2.55;;;;;;;;;;5066529;28;20047;-25
2022/05/25 10:23:25;;;;;;;5.35;3.22;;;;;;;;;;5045049;28;20045;-25
2022/05/25 10:25:59;;;;;;;3.83;2.42;;;;;;;;;;5070324;28;20524;-24
2022/05/25 10:28:29;;;;;;;5.25;2.88;;;;;;;;;;5074789;28;20502;-24
2022/05/25 10:36:49;;;;;;;4.25;2.58;;;;;;;;;;5056223;28;20049;-24
2022/05/25 10:39:17;;;;;;;3.90;2.50;;;;;;;;;;5055902;28;20410;-24
2022/05/25 10:41:45;;;;;;;4.45;2.30;;;;;;;;;;5056096;28;20085;-24
2022/05/25 10:44:15;;;;;;;4.78;3.13;;;;;;;;;;5072262;28;20406;-24
2022/05/25 10:46:43;;;;;;;3.67;2.63;;;;;;;;;;5070857;28;20076;-26
2022/05/25 10:49:27;;;;;;;5.90;3.90;;;;;;;;;;5069069;28;20123;-24
2022/05/25 10:51:58;;;;;;;6.63;4.32;;;;;;;;;;5075892;28;20053;-24
2022/05/25 10:54:45;;;;;;;16.77;5.93;;;;;;;;;;5076747;28;20119;-23
2022/05/25 10:57:26;;;;;;;9.05;3.00;;;;;;;;;;5059030;28;20107;-22
2022/05/25 10:59:55;;;;;;;2.10;1.13;;;;;;;;;;5076039;28;20474;-22
2022/05/25 11:02:24;;;;;;;7.25;2.10;;;;;;;;;;5068296;28;20138;-21
2022/05/25 11:04:56;;;;;;;5.68;3.15;;;;;;;;;;5060226;28;20395;-21
2022/05/25 11:07:27;;;;;;;7.00;2.85;;;;;;;;;;5061302;28;20048;-21
2022/05/25 11:10:09;;;;;;;5.60;2.75;;;;;;;;;;5058997;28;20059;-21
2022/05/25 11:12:38;;;;;;;6.20;3.08;;;;;;;;;;5056335;28;20037;-21
2022/05/25 11:15:25;;;;;;;5.45;3.10;;;;;;;;;;5060154;28;20395;-21
2022/05/25 11:17:51;;;;;;;5.05;2.50;;;;;;;;;;5075733;28;20102;-21
2022/05/25 11:20:28;;;;;;;6.05;3.78;;;;;;;;;;5075392;28;20045;-21
2022/05/25 11:23:13;;;;;;;5.90;3.97;;;;;;;;;;5074128;28;20047;-21
2022/05/25 11:25:47;;;;;;;4.30;3.35;;;;;;;;;;5073978;28;20110;-21
2022/05/25 11:28:13;;;;;;;4.50;2.70;;;;;;;;;;5067951;28;20410;-22
2022/05/25 11:30:39;;;;;;;3.65;2.63;;;;;;;;;;5065457;28;20087;-21
2022/05/25 11:33:12;;;;;;;5.68;2.65;;;;;;;;;;5066146;28;20040;-22
2022/05/25 11:35:48;;;;;;;5.33;3.57;;;;;;;;;;5074108;28;20158;-23
2022/05/25 11:38:21;;;;;;;5.35;3.58;;;;;;;;;;5074905;28;20704;-21
2022/05/25 11:41:03;;;;;;;6.40;4.05;;;;;;;;;;5070388;28;20520;-22
2022/05/25 11:43:45;;;;;;;5.95;3.88;;;;;;;;;;5073769;28;20087;-22
2022/05/25 11:46:27;;;;;;;7.00;5.57;;;;;;;;;;5074885;28;20052;-22
2022/05/25 11:48:56;;;;;;;7.18;5.25;;;;;;;;;;5054754;28;20152;-22
2022/05/25 11:51:22;;;;;;;9.52;6.20;;;;;;;;;;5069477;28;20495;-22
2022/05/25 11:53:56;;;;;;;6.00;5.40;;;;;;;;;;5075450;28;20041;-22
2022/05/25 11:56:37;;;;;;;8.00;5.30;;;;;;;;;;5060780;28;20503;-22
2022/05/25 11:59:03;;;;;;;13.25;8.40;;;;;;;;;;5053992;28;20053;-22
2022/05/25 12:01:41;;;;;;;11.68;8.23;;;;;;;;;;5054883;28;20044;-22
2022/05/25 12:04:16;;;;;;;7.65;5.70;;;;;;;;;;5054718;28;20106;-23
2022/05/25 12:06:42;;;;;;;9.57;4.07;;;;;;;;;;5054316;28;20045;-23
2022/05/25 12:09:09;;;;;;;3.50;0.82;;;;;;;;;;5073822;28;20123;-23
2022/05/25 12:11:45;;;;;;;4.18;1.45;;;;;;;;;;5067927;28;20114;-23
2022/05/25 12:14:17;;;;;;;3.90;0.88;;;;;;;;;;5058809;28;20044;-23
2022/05/25 12:16:45;;;;;;;4.70;0.70;;;;;;;;;;5064958;28;20048;-23
2022/05/25 12:19:17;;;;;;;2.17;0.70;;;;;;;;;;5073321;28;20105;-23
2022/05/25 12:21:49;;;;;;;3.38;0.70;;;;;;;;;;5055605;28;20502;-22
2022/05/25 12:24:20;;;;;;;4.45;0.60;;;;;;;;;;5062909;28;20098;-23
2022/05/25 12:26:46;;;;;;;5.90;0.80;;;;;;;;;;5073910;28;20044;-22
2022/05/25 12:29:23;;;;;;;3.10;0.73;;;;;;;;;;5074031;28;20051;-23
2022/05/25 12:31:52;;;;;;;5.78;1.42;;;;;;;;;;5073866;28;20041;-23
2022/05/25 12:34:27;;;;;;;3.40;0.52;;;;;;;;;;5073990;28;20048;-23
2022/05/25 12:36:53;;;;;;;4.15;0.70;;;;;;;;;;5073177;28;20563;-23
2022/05/25 12:39:38;;;;;;;2.25;0.32;;;;;;;;;;5074744;28;20040;-23
2022/05/25 12:42:24;;;;;;;4.32;0.55;;;;;;;;;;5073889;28;20514;-23
2022/05/25 12:50:50;;;;;;;1.70;0.50;;;;;;;;;;5066399;28;20052;-23
2022/05/25 12:53:25;;;;;;;2.15;0.40;;;;;;;;;;5074292;28;20049;-23
2022/05/25 12:55:54;;;;;;;2.85;0.68;;;;;;;;;;5074282;28;20048;-23
2022/05/25 12:58:42;;;;;;;2.38;0.60;;;;;;;;;;5072644;28;20049;-23
2022/05/25 13:01:26;;;;;;;2.03;0.80;;;;;;;;;;5063943;28;20119;-23
2022/05/25 13:03:58;;;;;;;2.75;0.70;;;;;;;;;;5073255;28;20098;-23
2022/05/25 13:06:35;;;;;;;1.98;0.40;;;;;;;;;;5055772;28;20437;-23
2022/05/25 13:09:09;;;;;;;3.67;0.85;;;;;;;;;;5059981;28;20045;-23
2022/05/25 13:11:35;;;;;;;2.47;0.63;;;;;;;;;;5072695;28;20052;-23
2022/05/25 13:14:06;;;;;;;19.33;1.00;;;;;;;;;;5068490;28;20083;-24
2022/05/25 13:16:42;;;;;;;1.35;0.40;;;;;;;;;;5074334;28;20110;-23
2022/05/25 13:19:14;;;;;;;2.75;0.63;;;;;;;;;;5073490;28;20098;-23
2022/05/25 13:21:41;;;;;;;6.20;0.98;;;;;;;;;;5073397;28;20091;-23
2022/05/25 13:24:27;;;;;;;3.65;0.85;;;;;;;;;;5073259;28;20048;-23
2022/05/25 13:27:11;;;;;;;2.65;0.70;;;;;;;;;;5059548;28;20052;-24
2022/05/25 13:29:51;;;;;;;6.55;0.82;;;;;;;;;;5073376;28;20048;-23
2022/05/25 13:32:32;;;;;;;1.63;0.57;;;;;;;;;;5073405;28;20041;-24
2022/05/25 13:35:00;;;;;;;4.97;0.85;;;;;;;;;;5072325;28;20088;-23
2022/05/25 13:37:26;;;;;;;3.55;0.70;;;;;;;;;;5073249;28;20055;-23
2022/05/25 13:39:53;;;;;;;4.50;0.82;;;;;;;;;;5073189;28;20046;-23
2022/05/25 13:42:19;;;;;;;6.22;0.90;;;;;;;;;;5073130;28;20044;-23
2022/05/25 13:44:50;;;;;;;9.30;0.80;;;;;;;;;;5072538;28;20044;-23
2022/05/25 13:47:18;;;;;;;5.53;0.70;;;;;;;;;;5069998;28;20060;-24
2022/05/25 13:49:47;;;;;;;2.58;0.50;;;;;;;;;;5073108;28;20095;-23
2022/05/25 13:52:16;;;;;;;5.85;0.68;;;;;;;;;;5058175;28;20049;-24
2022/05/25 13:54:43;;;;;;;3.13;0.60;;;;;;;;;;5071640;28;20525;-23
2022/05/25 13:57:32;;;;;;;3.60;0.50;;;;;;;;;;5066630;28;20095;-24
2022/05/25 14:00:13;;;;;;;5.07;0.75;;;;;;;;;;5049988;28;20152;-23
2022/05/25 14:02:44;;;;;;;2.28;0.50;;;;;;;;;;5052646;28;20088;-24
2022/05/25 14:05:10;;;;;;;1.92;0.50;;;;;;;;;;5060415;28;20084;-23
2022/05/25 14:07:39;;;;;;;4.60;0.68;;;;;;;;;;5056696;28;20123;-23
2022/05/25 14:13:12;;;;;;;5.18;0.73;;;;;;;;;;5056674;28;20159;-24
2022/05/25 14:15:38;;;;;;;4.03;1.15;;;;;;;;;;5070879;28;20044;-23
2022/05/25 14:18:04;;;;;;;4.93;0.60;;;;;;;;;;5075316;28;20044;-23
2022/05/25 14:20:30;;;;;;;5.28;1.10;;;;;;;;;;5077023;28;20378;-24
2022/05/25 14:22:57;;;;;;;1.88;0.40;;;;;;;;;;5074709;28;20044;-24
2022/05/25 14:25:30;;;;;;;4.35;0.70;;;;;;;;;;5067229;28;20083;-24
2022/05/25 14:27:56;;;;;;;6.10;1.15;;;;;;;;;;5068953;28;20052;-23
2022/05/25 14:30:26;;;;;;;4.20;0.57;;;;;;;;;;5076818;28;20056;-23
2022/05/25 14:33:06;;;;;;;2.78;0.60;;;;;;;;;;5074506;28;20040;-24
2022/05/25 14:35:33;;;;;;;2.67;0.70;;;;;;;;;;5072916;28;20237;-24
2022/05/25 14:38:04;;;;;;;3.38;0.70;;;;;;;;;;5063079;28;20048;-24
2022/05/25 14:40:31;;;;;;;4.97;0.80;;;;;;;;;;5055865;28;20399;-24
2022/05/25 14:43:02;;;;;;;3.60;1.08;;;;;;;;;;5067525;28;20036;-25
2022/05/25 14:45:29;;;;;;;1.63;0.38;;;;;;;;;;5076664;28;20378;-24
2022/05/25 14:48:01;;;;;;;4.28;0.75;;;;;;;;;;5074271;28;20052;-25
2022/05/25 14:50:31;;;;;;;3.65;0.60;;;;;;;;;;5075141;28;20040;-24
2022/05/25 14:52:57;;;;;;;3.97;0.47;;;;;;;;;;5066097;28;20033;-24
2022/05/25 14:55:26;;;;;;;4.47;0.50;;;;;;;;;;5076317;28;20406;-24
2022/05/25 14:58:02;;;;;;;5.45;1.10;;;;;;;;;;5075496;28;20051;-24
2022/05/25 15:00:28;;;;;;;4.15;0.80;;;;;;;;;;5075378;28;20372;-24
2022/05/25 15:02:58;;;;;;;5.32;0.40;;;;;;;;;;5077425;28;20063;-24
2022/05/25 15:05:27;;;;;;;3.33;0.50;;;;;;;;;;5075649;28;20131;-24
2022/05/25 15:07:54;;;;;;;4.63;0.73;;;;;;;;;;5075639;28;20045;-24
2022/05/25 15:10:20;;;;;;;4.07;0.70;;;;;;;;;;5075556;28;20048;-24
2022/05/25 15:12:47;;;;;;;4.32;0.77;;;;;;;;;;5068361;28;20571;-24
2022/05/25 15:18:31;;;;;;;6.53;0.73;;;;;;;;;;5075214;28;20540;-24
2022/05/25 15:21:02;;;;;;;5.75;0.73;;;;;;;;;;5073888;28;20050;-24